sensor_id;sensor_type;location;lat;lon;timestamp;temperature;humidity
3156;DHT22;1588;50.892;7.082;2022-11-24T06:54:19;7.70;99.90
3156;DHT22;1588;50.892;7.082;2022-11-24T06:59:36;7.70;99.90
3156;DHT22;1588;50.892;7.082;2022-11-24T07:04:38;7.70;99.90
3156;DHT22;1588;50.892;7.082;2022-11-24T07:09:42;7.70;99.90
3156;DHT22;1588;50.892;7.082;2022-11-24T07:14:45;7.70;99.90
3156;DHT22;1588;50.892;7.082;2022-11-24T07:19:49;7.70;99.90
3156;DHT22;1588;50.892;7.082;2022-11-24T07:24:53;7.80;99.90
3156;DHT22;1588;50.892;7.082;2022-11-24T07:29:56;7.70;99.90
3156;DHT22;1588;50.892;7.082;2022-11-24T07:35:00;7.70;99.90
3156;DHT22;1588;50.892;7.082;2022-11-24T07:40:12;7.60;99.90
3156;DHT22;1588;50.892;7.082;2022-11-24T07:45:18;7.50;99.90
3156;DHT22;1588;50.892;7.082;2022-11-24T07:50:21;7.40;99.90
3156;DHT22;1588;50.892;7.082;2022-11-24T07:55:30;7.40;99.90
3156;DHT22;1588;50.892;7.082;2022-11-24T08:00:33;7.40;99.90
3156;DHT22;1588;50.892;7.082;2022-11-24T08:05:36;7.40;99.90
3156;DHT22;1588;50.892;7.082;2022-11-24T08:10:40;7.40;99.90
3156;DHT22;1588;50.892;7.082;2022-11-24T08:15:48;7.50;99.90
3156;DHT22;1588;50.892;7.082;2022-11-24T08:20:51;7.60;99.90
3156;DHT22;1588;50.892;7.082;2022-11-24T08:25:57;7.70;99.90
3156;DHT22;1588;50.892;7.082;2022-11-24T08:31:11;7.70;99.90
3156;DHT22;1588;50.892;7.082;2022-11-24T08:36:17;7.90;99.90
3156;DHT22;1588;50.892;7.082;2022-11-24T08:41:26;7.90;99.90
3156;DHT22;1588;50.892;7.082;2022-11-24T08:46:42;7.90;99.90
3156;DHT22;1588;50.892;7.082;2022-11-24T08:51:46;8.00;99.90
3156;DHT22;1588;50.892;7.082;2022-11-24T08:56:54;8.10;99.90
3156;DHT22;1588;50.892;7.082;2022-11-24T09:01:57;8.20;99.90
3156;DHT22;1588;50.892;7.082;2022-11-24T09:07:00;8.10;99.90
3156;DHT22;1588;50.892;7.082;2022-11-24T09:12:08;8.20;99.90
3156;DHT22;1588;50.892;7.082;2022-11-24T09:17:14;8.40;99.90
3156;DHT22;1588;50.892;7.082;2022-11-24T09:22:16;8.40;99.90
3156;DHT22;1588;50.892;7.082;2022-11-24T09:27:24;8.50;99.90
3156;DHT22;1588;50.892;7.082;2022-11-24T09:32:28;8.60;99.90
3156;DHT22;1588;50.892;7.082;2022-11-24T09:37:31;8.70;99.90
3156;DHT22;1588;50.892;7.082;2022-11-24T09:42:42;8.80;99.90
3156;DHT22;1588;50.892;7.082;2022-11-24T09:47:56;8.80;99.90
3156;DHT22;1588;50.892;7.082;2022-11-24T09:53:05;8.90;99.90
3156;DHT22;1588;50.892;7.082;2022-11-24T09:58:17;9.10;99.90
3156;DHT22;1588;50.892;7.082;2022-11-24T10:03:26;9.40;99.90
3156;DHT22;1588;50.892;7.082;2022-11-24T10:08:52;9.40;99.90
3156;DHT22;1588;50.892;7.082;2022-11-24T10:14:46;9.50;99.90
3156;DHT22;1588;50.892;7.082;2022-11-24T10:20:00;9.80;99.90
3156;DHT22;1588;50.892;7.082;2022-11-24T10:25:12;9.90;99.90
3156;DHT22;1588;50.892;7.082;2022-11-24T10:30:21;9.90;99.90
3156;DHT22;1588;50.892;7.082;2022-11-24T10:35:28;9.90;99.90
3156;DHT22;1588;50.892;7.082;2022-11-24T10:40:35;10.00;99.90
3156;DHT22;1588;50.892;7.082;2022-11-24T10:45:40;10.10;99.90
3156;DHT22;1588;50.892;7.082;2022-11-24T10:50:43;10.10;99.90
3156;DHT22;1588;50.892;7.082;2022-11-24T10:55:57;10.10;99.90
3156;DHT22;1588;50.892;7.082;2022-11-24T11:01:17;10.20;99.90
3156;DHT22;1588;50.892;7.082;2022-11-24T11:06:22;10.40;99.90
3156;DHT22;1588;50.892;7.082;2022-11-24T11:11:27;10.40;99.90
3156;DHT22;1588;50.892;7.082;2022-11-24T11:16:37;10.50;99.90
3156;DHT22;1588;50.892;7.082;2022-11-24T11:21:40;10.60;99.90
3156;DHT22;1588;50.892;7.082;2022-11-24T11:26:42;10.60;99.90
3156;DHT22;1588;50.892;7.082;2022-11-24T11:32:01;10.50;99.90
3156;DHT22;1588;50.892;7.082;2022-11-24T11:37:04;10.50;99.90
3156;DHT22;1588;50.892;7.082;2022-11-24T11:42:15;10.70;99.90
3156;DHT22;1588;50.892;7.082;2022-11-24T11:47:23;10.90;99.90
3156;DHT22;1588;50.892;7.082;2022-11-24T11:52:42;10.90;99.90
3156;DHT22;1588;50.892;7.082;2022-11-24T11:57:54;11.10;99.90
3156;DHT22;1588;50.892;7.082;2022-11-24T12:03:35;11.10;99.90
3156;DHT22;1588;50.892;7.082;2022-11-24T12:08:45;11.10;99.90
3156;DHT22;1588;50.892;7.082;2022-11-24T12:19:35;11.40;99.90
3156;DHT22;1588;50.892;7.082;2022-11-24T12:24:44;11.50;99.90
3156;DHT22;1588;50.892;7.082;2022-11-24T12:30:03;11.40;99.90
3156;DHT22;1588;50.892;7.082;2022-11-24T12:35:29;11.50;99.90
3156;DHT22;1588;50.892;7.082;2022-11-24T12:40:50;11.50;99.90
3156;DHT22;1588;50.892;7.082;2022-11-24T12:46:00;11.50;99.90
3156;DHT22;1588;50.892;7.082;2022-11-24T12:51:16;11.50;99.90
3156;DHT22;1588;50.892;7.082;2022-11-24T12:56:23;11.50;99.90
3156;DHT22;1588;50.892;7.082;2022-11-24T13:01:32;11.50;99.90
3156;DHT22;1588;50.892;7.082;2022-11-24T13:06:59;11.50;99.90
3156;DHT22;1588;50.892;7.082;2022-11-24T13:12:10;11.50;99.90
3156;DHT22;1588;50.892;7.082;2022-11-24T13:17:26;11.50;99.90
3156;DHT22;1588;50.892;7.082;2022-11-24T13:22:31;11.50;99.90
3156;DHT22;1588;50.892;7.082;2022-11-24T13:27:46;11.50;99.90
3156;DHT22;1588;50.892;7.082;2022-11-24T13:33:00;11.50;99.90
3156;DHT22;1588;50.892;7.082;2022-11-24T13:38:38;11.40;99.90
3156;DHT22;1588;50.892;7.082;2022-11-24T13:44:22;11.30;99.90
3156;DHT22;1588;50.892;7.082;2022-11-24T13:49:36;11.30;99.90
3156;DHT22;1588;50.892;7.082;2022-11-24T13:54:41;11.40;99.90
3156;DHT22;1588;50.892;7.082;2022-11-24T14:00:02;11.50;99.90
3156;DHT22;1588;50.892;7.082;2022-11-24T14:05:05;11.80;99.90
3156;DHT22;1588;50.892;7.082;2022-11-24T14:10:21;11.90;99.90
3156;DHT22;1588;50.892;7.082;2022-11-24T14:15:25;11.90;99.90
3156;DHT22;1588;50.892;7.082;2022-11-24T14:20:29;11.80;99.90
3156;DHT22;1588;50.892;7.082;2022-11-24T14:25:33;11.70;99.90
3156;DHT22;1588;50.892;7.082;2022-11-24T14:31:06;11.50;99.90
3156;DHT22;1588;50.892;7.082;2022-11-24T14:36:13;11.40;99.90
3156;DHT22;1588;50.892;7.082;2022-11-24T14:41:23;11.20;99.90
3156;DHT22;1588;50.892;7.082;2022-11-24T14:46:28;11.10;99.90
3156;DHT22;1588;50.892;7.082;2022-11-24T14:51:32;10.90;99.90
3156;DHT22;1588;50.892;7.082;2022-11-24T14:56:38;10.70;99.90
3156;DHT22;1588;50.892;7.082;2022-11-24T15:01:40;10.60;99.90
3156;DHT22;1588;50.892;7.082;2022-11-24T15:06:44;10.50;99.90
3156;DHT22;1588;50.892;7.082;2022-11-24T15:11:48;10.30;99.90
3156;DHT22;1588;50.892;7.082;2022-11-24T15:16:50;10.00;99.90
3156;DHT22;1588;50.892;7.082;2022-11-24T15:21:53;9.80;99.90
3156;DHT22;1588;50.892;7.082;2022-11-24T15:27:00;9.60;99.90
3156;DHT22;1588;50.892;7.082;2022-11-24T15:32:11;9.70;99.90
3156;DHT22;1588;50.892;7.082;2022-11-24T15:37:15;9.70;99.90
3156;DHT22;1588;50.892;7.082;2022-11-24T15:42:18;9.60;99.90
3156;DHT22;1588;50.892;7.082;2022-11-24T15:47:21;9.60;99.90
3156;DHT22;1588;50.892;7.082;2022-11-24T15:52:23;9.40;99.90
3156;DHT22;1588;50.892;7.082;2022-11-24T15:57:36;9.30;99.90
3156;DHT22;1588;50.892;7.082;2022-11-24T16:02:41;9.30;99.90
3156;DHT22;1588;50.892;7.082;2022-11-24T16:07:43;9.20;99.90
3156;DHT22;1588;50.892;7.082;2022-11-24T16:12:47;9.10;99.90
3156;DHT22;1588;50.892;7.082;2022-11-24T16:17:53;9.10;99.90
3156;DHT22;1588;50.892;7.082;2022-11-24T16:22:55;9.10;99.90
3156;DHT22;1588;50.892;7.082;2022-11-24T16:33:38;9.00;99.90
3156;DHT22;1588;50.892;7.082;2022-11-24T16:38:42;9.00;99.90
3156;DHT22;1588;50.892;7.082;2022-11-24T16:43:45;8.90;99.90
3156;DHT22;1588;50.892;7.082;2022-11-24T16:48:57;8.80;99.90
3156;DHT22;1588;50.892;7.082;2022-11-24T16:54:14;8.50;99.90
3156;DHT22;1588;50.892;7.082;2022-11-24T16:59:21;8.30;99.90
3156;DHT22;1588;50.892;7.082;2022-11-24T17:04:25;8.20;99.90
3156;DHT22;1588;50.892;7.082;2022-11-24T17:09:56;8.10;99.90
3156;DHT22;1588;50.892;7.082;2022-11-24T17:15:01;8.00;99.90
3156;DHT22;1588;50.892;7.082;2022-11-24T17:20:18;7.90;99.90
3156;DHT22;1588;50.892;7.082;2022-11-24T17:25:27;7.80;99.90
3156;DHT22;1588;50.892;7.082;2022-11-24T17:30:30;7.70;99.90
3156;DHT22;1588;50.892;7.082;2022-11-24T17:35:34;7.60;99.90
3156;DHT22;1588;50.892;7.082;2022-11-24T17:40:37;7.50;99.90
3156;DHT22;1588;50.892;7.082;2022-11-24T17:45:52;7.40;99.90
3156;DHT22;1588;50.892;7.082;2022-11-24T17:51:01;7.40;99.90
3156;DHT22;1588;50.892;7.082;2022-11-24T17:56:11;7.40;99.90
3156;DHT22;1588;50.892;7.082;2022-11-24T18:01:16;7.20;99.90
3156;DHT22;1588;50.892;7.082;2022-11-24T18:06:20;7.10;99.90
3156;DHT22;1588;50.892;7.082;2022-11-24T18:11:27;7.10;99.90
3156;DHT22;1588;50.892;7.082;2022-11-24T18:16:36;7.00;99.90
3156;DHT22;1588;50.892;7.082;2022-11-24T18:21:43;7.00;99.90
3156;DHT22;1588;50.892;7.082;2022-11-24T18:26:46;6.90;99.90
3156;DHT22;1588;50.892;7.082;2022-11-24T18:31:54;6.90;99.90
3156;DHT22;1588;50.892;7.082;2022-11-24T18:36:58;6.90;99.90
3156;DHT22;1588;50.892;7.082;2022-11-24T18:42:01;7.00;99.90
3156;DHT22;1588;50.892;7.082;2022-11-24T18:47:03;7.10;99.90
3156;DHT22;1588;50.892;7.082;2022-11-24T18:52:07;7.30;99.90
3156;DHT22;1588;50.892;7.082;2022-11-24T19:02:41;7.20;99.90
3156;DHT22;1588;50.892;7.082;2022-11-24T19:07:45;7.30;99.90
3156;DHT22;1588;50.892;7.082;2022-11-24T19:12:48;7.30;99.90
3156;DHT22;1588;50.892;7.082;2022-11-24T19:17:51;7.30;99.90
3156;DHT22;1588;50.892;7.082;2022-11-24T19:23:11;7.30;99.90
3156;DHT22;1588;50.892;7.082;2022-11-24T19:28:14;7.20;99.90
3156;DHT22;1588;50.892;7.082;2022-11-24T19:33:18;7.00;99.90
3156;DHT22;1588;50.892;7.082;2022-11-24T19:38:22;6.70;99.90
3156;DHT22;1588;50.892;7.082;2022-11-24T19:43:25;6.30;99.90
3156;DHT22;1588;50.892;7.082;2022-11-24T19:48:30;6.30;99.90
3156;DHT22;1588;50.892;7.082;2022-11-24T19:53:35;6.10;99.90
3156;DHT22;1588;50.892;7.082;2022-11-24T19:58:39;6.00;99.90
3156;DHT22;1588;50.892;7.082;2022-11-24T20:03:45;5.90;99.90
3156;DHT22;1588;50.892;7.082;2022-11-24T20:08:56;5.90;99.90
3156;DHT22;1588;50.892;7.082;2022-11-24T20:14:02;5.80;99.90
3156;DHT22;1588;50.892;7.082;2022-11-24T20:19:06;5.80;99.90
3156;DHT22;1588;50.892;7.082;2022-11-24T20:24:12;5.80;99.90
3156;DHT22;1588;50.892;7.082;2022-11-24T20:29:24;6.00;99.90
3156;DHT22;1588;50.892;7.082;2022-11-24T20:34:29;6.00;99.90
3156;DHT22;1588;50.892;7.082;2022-11-24T20:39:34;6.10;99.90
3156;DHT22;1588;50.892;7.082;2022-11-24T20:44:39;6.30;99.90
3156;DHT22;1588;50.892;7.082;2022-11-24T20:49:44;6.50;99.90
3156;DHT22;1588;50.892;7.082;2022-11-24T20:54:51;6.50;99.90
3156;DHT22;1588;50.892;7.082;2022-11-24T20:59:57;6.50;99.90
3156;DHT22;1588;50.892;7.082;2022-11-24T21:04:59;6.60;99.90
3156;DHT22;1588;50.892;7.082;2022-11-24T21:10:04;6.40;99.90
3156;DHT22;1588;50.892;7.082;2022-11-24T21:15:08;6.40;99.90
3156;DHT22;1588;50.892;7.082;2022-11-24T21:20:11;6.30;99.90
3156;DHT22;1588;50.892;7.082;2022-11-24T21:25:15;6.30;99.90
3156;DHT22;1588;50.892;7.082;2022-11-24T21:30:19;6.40;99.90
3156;DHT22;1588;50.892;7.082;2022-11-24T21:35:22;6.50;99.90
3156;DHT22;1588;50.892;7.082;2022-11-24T21:40:26;6.50;99.90
3156;DHT22;1588;50.892;7.082;2022-11-24T21:45:33;6.40;99.90
3156;DHT22;1588;50.892;7.082;2022-11-24T21:50:40;6.30;99.90
3156;DHT22;1588;50.892;7.082;2022-11-24T21:55:53;6.20;99.90
3156;DHT22;1588;50.892;7.082;2022-11-24T22:01:00;6.20;99.90
3156;DHT22;1588;50.892;7.082;2022-11-24T22:06:05;6.30;99.90
3156;DHT22;1588;50.892;7.082;2022-11-24T22:11:16;6.40;99.90
3156;DHT22;1588;50.892;7.082;2022-11-24T22:16:20;6.50;99.90
3156;DHT22;1588;50.892;7.082;2022-11-24T22:21:24;6.60;99.90
3156;DHT22;1588;50.892;7.082;2022-11-24T22:26:34;6.80;99.90
3156;DHT22;1588;50.892;7.082;2022-11-24T22:31:40;6.90;99.90
3156;DHT22;1588;50.892;7.082;2022-11-24T22:36:42;6.90;99.90
3156;DHT22;1588;50.892;7.082;2022-11-24T22:41:46;6.80;99.90
3156;DHT22;1588;50.892;7.082;2022-11-24T22:46:49;6.80;99.90
3156;DHT22;1588;50.892;7.082;2022-11-24T22:51:51;6.80;99.90
3156;DHT22;1588;50.892;7.082;2022-11-24T22:56:55;6.70;99.90
3156;DHT22;1588;50.892;7.082;2022-11-24T23:01:58;6.80;99.90
3156;DHT22;1588;50.892;7.082;2022-11-24T23:07:02;6.80;99.90
3156;DHT22;1588;50.892;7.082;2022-11-24T23:12:06;6.90;99.90
3156;DHT22;1588;50.892;7.082;2022-11-24T23:17:09;7.00;99.90
3156;DHT22;1588;50.892;7.082;2022-11-24T23:22:13;7.10;99.90
3156;DHT22;1588;50.892;7.082;2022-11-24T23:27:16;7.20;99.90
3156;DHT22;1588;50.892;7.082;2022-11-24T23:32:19;7.10;99.90
3156;DHT22;1588;50.892;7.082;2022-11-24T23:37:22;7.20;99.90
3156;DHT22;1588;50.892;7.082;2022-11-24T23:42:25;7.10;99.90
3156;DHT22;1588;50.892;7.082;2022-11-24T23:47:28;7.10;99.90
3156;DHT22;1588;50.892;7.082;2022-11-24T23:52:33;7.10;99.90
3156;DHT22;1588;50.892;7.082;2022-11-24T23:57:37;7.10;99.90
